sensor_id;sensor_type;location;lat;lon;timestamp;temperature;humidity
15698;DHT22;7949;48.726;9.102;2022-08-01T00:01:34;20.40;99.90
15698;DHT22;7949;48.726;9.102;2022-08-01T00:04:01;20.30;99.90
15698;DHT22;7949;48.726;9.102;2022-08-01T00:06:30;20.30;99.90
15698;DHT22;7949;48.726;9.102;2022-08-01T00:08:57;20.30;99.90
15698;DHT22;7949;48.726;9.102;2022-08-01T00:11:24;20.30;99.90
15698;DHT22;7949;48.726;9.102;2022-08-01T00:13:51;20.30;99.90
15698;DHT22;7949;48.726;9.102;2022-08-01T00:16:18;20.30;99.90
15698;DHT22;7949;48.726;9.102;2022-08-01T00:18:48;20.30;99.90
15698;DHT22;7949;48.726;9.102;2022-08-01T00:21:15;20.30;99.90
15698;DHT22;7949;48.726;9.102;2022-08-01T00:23:43;20.20;99.90
15698;DHT22;7949;48.726;9.102;2022-08-01T00:26:11;20.20;99.90
15698;DHT22;7949;48.726;9.102;2022-08-01T00:28:38;20.10;99.90
15698;DHT22;7949;48.726;9.102;2022-08-01T00:31:05;20.10;99.90
15698;DHT22;7949;48.726;9.102;2022-08-01T00:33:32;20.10;99.90
15698;DHT22;7949;48.726;9.102;2022-08-01T00:35:59;20.00;99.90
15698;DHT22;7949;48.726;9.102;2022-08-01T00:38:25;20.00;99.90
15698;DHT22;7949;48.726;9.102;2022-08-01T00:40:54;20.00;99.90
15698;DHT22;7949;48.726;9.102;2022-08-01T00:43:21;20.00;99.90
15698;DHT22;7949;48.726;9.102;2022-08-01T00:45:48;20.00;99.90
15698;DHT22;7949;48.726;9.102;2022-08-01T00:48:15;19.90;99.90
15698;DHT22;7949;48.726;9.102;2022-08-01T00:50:42;19.90;99.90
15698;DHT22;7949;48.726;9.102;2022-08-01T00:53:10;19.90;99.90
15698;DHT22;7949;48.726;9.102;2022-08-01T00:55:37;19.80;99.90
15698;DHT22;7949;48.726;9.102;2022-08-01T00:58:05;19.80;99.90
15698;DHT22;7949;48.726;9.102;2022-08-01T01:00:34;19.80;99.90
15698;DHT22;7949;48.726;9.102;2022-08-01T01:03:02;19.80;99.90
15698;DHT22;7949;48.726;9.102;2022-08-01T01:05:33;19.80;99.90
15698;DHT22;7949;48.726;9.102;2022-08-01T01:08:07;19.70;99.90
15698;DHT22;7949;48.726;9.102;2022-08-01T01:10:40;19.70;99.90
15698;DHT22;7949;48.726;9.102;2022-08-01T01:13:15;19.70;99.90
15698;DHT22;7949;48.726;9.102;2022-08-01T01:15:46;19.70;99.90
15698;DHT22;7949;48.726;9.102;2022-08-01T01:18:18;19.60;99.90
15698;DHT22;7949;48.726;9.102;2022-08-01T01:20:52;19.70;99.90
15698;DHT22;7949;48.726;9.102;2022-08-01T01:23:34;19.70;99.90
15698;DHT22;7949;48.726;9.102;2022-08-01T01:26:21;19.60;99.90
15698;DHT22;7949;48.726;9.102;2022-08-01T01:29:13;19.60;99.90
15698;DHT22;7949;48.726;9.102;2022-08-01T01:31:46;19.60;99.90
15698;DHT22;7949;48.726;9.102;2022-08-01T01:34:17;19.60;99.90
15698;DHT22;7949;48.726;9.102;2022-08-01T01:36:46;19.50;99.90
15698;DHT22;7949;48.726;9.102;2022-08-01T01:39:14;19.60;99.90
15698;DHT22;7949;48.726;9.102;2022-08-01T01:41:43;19.60;99.90
15698;DHT22;7949;48.726;9.102;2022-08-01T01:44:12;19.50;99.90
15698;DHT22;7949;48.726;9.102;2022-08-01T01:46:40;19.60;99.90
15698;DHT22;7949;48.726;9.102;2022-08-01T01:49:08;19.50;99.90
15698;DHT22;7949;48.726;9.102;2022-08-01T01:51:37;19.50;99.90
15698;DHT22;7949;48.726;9.102;2022-08-01T01:54:05;19.60;99.90
15698;DHT22;7949;48.726;9.102;2022-08-01T01:56:34;19.60;99.90
15698;DHT22;7949;48.726;9.102;2022-08-01T01:59:16;19.60;99.90
15698;DHT22;7949;48.726;9.102;2022-08-01T02:01:47;19.60;99.90
15698;DHT22;7949;48.726;9.102;2022-08-01T02:04:14;19.60;99.90
15698;DHT22;7949;48.726;9.102;2022-08-01T02:06:43;19.60;99.90
15698;DHT22;7949;48.726;9.102;2022-08-01T02:09:11;19.70;99.90
15698;DHT22;7949;48.726;9.102;2022-08-01T02:11:41;19.70;99.90
15698;DHT22;7949;48.726;9.102;2022-08-01T02:14:10;19.70;99.90
15698;DHT22;7949;48.726;9.102;2022-08-01T02:16:41;19.70;99.90
15698;DHT22;7949;48.726;9.102;2022-08-01T02:19:09;19.70;99.90
15698;DHT22;7949;48.726;9.102;2022-08-01T02:21:40;19.70;99.90
15698;DHT22;7949;48.726;9.102;2022-08-01T02:24:12;19.60;99.90
15698;DHT22;7949;48.726;9.102;2022-08-01T02:26:46;19.60;99.90
15698;DHT22;7949;48.726;9.102;2022-08-01T02:29:19;19.60;99.90
15698;DHT22;7949;48.726;9.102;2022-08-01T02:31:48;19.50;99.90
15698;DHT22;7949;48.726;9.102;2022-08-01T02:34:18;19.40;99.90
15698;DHT22;7949;48.726;9.102;2022-08-01T02:36:46;19.30;99.90
15698;DHT22;7949;48.726;9.102;2022-08-01T02:39:15;19.40;99.90
15698;DHT22;7949;48.726;9.102;2022-08-01T02:41:48;19.40;99.90
15698;DHT22;7949;48.726;9.102;2022-08-01T02:44:19;19.40;99.90
15698;DHT22;7949;48.726;9.102;2022-08-01T02:46:54;19.40;99.90
15698;DHT22;7949;48.726;9.102;2022-08-01T02:49:24;19.30;99.90
15698;DHT22;7949;48.726;9.102;2022-08-01T02:51:53;19.30;99.90
15698;DHT22;7949;48.726;9.102;2022-08-01T02:54:22;19.20;99.90
15698;DHT22;7949;48.726;9.102;2022-08-01T02:56:50;19.20;99.90
15698;DHT22;7949;48.726;9.102;2022-08-01T02:59:21;19.10;99.90
15698;DHT22;7949;48.726;9.102;2022-08-01T03:01:54;19.10;99.90
15698;DHT22;7949;48.726;9.102;2022-08-01T03:04:22;19.10;99.90
15698;DHT22;7949;48.726;9.102;2022-08-01T03:06:51;19.00;99.90
15698;DHT22;7949;48.726;9.102;2022-08-01T03:09:20;18.90;99.90
15698;DHT22;7949;48.726;9.102;2022-08-01T03:11:49;18.90;99.90
15698;DHT22;7949;48.726;9.102;2022-08-01T03:14:17;18.80;99.90
15698;DHT22;7949;48.726;9.102;2022-08-01T03:16:47;18.70;99.90
15698;DHT22;7949;48.726;9.102;2022-08-01T03:19:18;18.70;99.90
15698;DHT22;7949;48.726;9.102;2022-08-01T03:21:47;18.70;99.90
15698;DHT22;7949;48.726;9.102;2022-08-01T03:24:16;18.60;99.90
15698;DHT22;7949;48.726;9.102;2022-08-01T03:26:43;18.60;99.90
15698;DHT22;7949;48.726;9.102;2022-08-01T03:29:14;18.60;99.90
15698;DHT22;7949;48.726;9.102;2022-08-01T03:31:44;18.60;99.90
15698;DHT22;7949;48.726;9.102;2022-08-01T03:34:12;18.60;99.90
15698;DHT22;7949;48.726;9.102;2022-08-01T03:36:45;18.60;99.90
15698;DHT22;7949;48.726;9.102;2022-08-01T03:39:13;18.60;99.90
15698;DHT22;7949;48.726;9.102;2022-08-01T03:41:45;18.60;99.90
15698;DHT22;7949;48.726;9.102;2022-08-01T03:44:15;18.60;99.90
15698;DHT22;7949;48.726;9.102;2022-08-01T03:46:46;18.70;99.90
15698;DHT22;7949;48.726;9.102;2022-08-01T03:49:17;18.70;99.90
15698;DHT22;7949;48.726;9.102;2022-08-01T03:51:47;18.70;99.90
15698;DHT22;7949;48.726;9.102;2022-08-01T03:54:16;18.70;99.90
15698;DHT22;7949;48.726;9.102;2022-08-01T03:56:46;18.70;99.90
15698;DHT22;7949;48.726;9.102;2022-08-01T03:59:15;18.70;99.90
15698;DHT22;7949;48.726;9.102;2022-08-01T04:01:44;18.70;99.90
15698;DHT22;7949;48.726;9.102;2022-08-01T04:04:11;18.70;99.90
15698;DHT22;7949;48.726;9.102;2022-08-01T04:06:38;18.60;99.90
15698;DHT22;7949;48.726;9.102;2022-08-01T04:09:08;18.70;99.90
15698;DHT22;7949;48.726;9.102;2022-08-01T04:11:35;18.70;99.90
15698;DHT22;7949;48.726;9.102;2022-08-01T04:14:02;18.70;99.90
15698;DHT22;7949;48.726;9.102;2022-08-01T04:16:29;18.70;99.90
15698;DHT22;7949;48.726;9.102;2022-08-01T04:18:56;18.70;99.90
15698;DHT22;7949;48.726;9.102;2022-08-01T04:21:25;18.70;99.90
15698;DHT22;7949;48.726;9.102;2022-08-01T04:23:58;18.70;99.90
15698;DHT22;7949;48.726;9.102;2022-08-01T04:26:27;18.80;99.90
15698;DHT22;7949;48.726;9.102;2022-08-01T04:28:55;18.80;99.90
15698;DHT22;7949;48.726;9.102;2022-08-01T04:31:24;18.80;99.90
15698;DHT22;7949;48.726;9.102;2022-08-01T04:33:53;18.90;99.90
15698;DHT22;7949;48.726;9.102;2022-08-01T04:36:23;18.90;99.90
15698;DHT22;7949;48.726;9.102;2022-08-01T04:38:55;18.90;99.90
15698;DHT22;7949;48.726;9.102;2022-08-01T04:41:25;19.00;99.90
15698;DHT22;7949;48.726;9.102;2022-08-01T04:43:53;19.00;99.90
15698;DHT22;7949;48.726;9.102;2022-08-01T04:46:21;18.90;99.90
15698;DHT22;7949;48.726;9.102;2022-08-01T04:48:49;19.00;99.90
15698;DHT22;7949;48.726;9.102;2022-08-01T04:51:18;19.00;99.90
15698;DHT22;7949;48.726;9.102;2022-08-01T04:53:48;19.10;99.90
15698;DHT22;7949;48.726;9.102;2022-08-01T04:56:16;19.10;99.90
15698;DHT22;7949;48.726;9.102;2022-08-01T04:58:44;19.20;99.90
15698;DHT22;7949;48.726;9.102;2022-08-01T05:01:13;19.30;99.90
15698;DHT22;7949;48.726;9.102;2022-08-01T05:03:40;19.30;99.90
15698;DHT22;7949;48.726;9.102;2022-08-01T05:06:07;19.30;99.90
15698;DHT22;7949;48.726;9.102;2022-08-01T05:08:34;19.40;99.90
15698;DHT22;7949;48.726;9.102;2022-08-01T05:11:01;19.30;99.90
15698;DHT22;7949;48.726;9.102;2022-08-01T05:13:28;19.30;99.90
15698;DHT22;7949;48.726;9.102;2022-08-01T05:15:56;19.40;99.90
15698;DHT22;7949;48.726;9.102;2022-08-01T05:18:24;19.40;99.90
15698;DHT22;7949;48.726;9.102;2022-08-01T05:20:52;19.60;99.90
15698;DHT22;7949;48.726;9.102;2022-08-01T05:23:22;19.70;99.90
15698;DHT22;7949;48.726;9.102;2022-08-01T05:25:49;19.90;99.90
15698;DHT22;7949;48.726;9.102;2022-08-01T05:28:16;20.00;99.90
15698;DHT22;7949;48.726;9.102;2022-08-01T05:30:42;20.20;99.90
15698;DHT22;7949;48.726;9.102;2022-08-01T05:33:09;20.20;99.90
15698;DHT22;7949;48.726;9.102;2022-08-01T05:35:38;20.30;99.90
15698;DHT22;7949;48.726;9.102;2022-08-01T05:38:05;20.30;99.90
15698;DHT22;7949;48.726;9.102;2022-08-01T05:40:32;20.20;99.90
15698;DHT22;7949;48.726;9.102;2022-08-01T05:42:58;20.10;99.90
15698;DHT22;7949;48.726;9.102;2022-08-01T05:45:25;20.10;99.90
15698;DHT22;7949;48.726;9.102;2022-08-01T05:47:52;20.20;99.90
15698;DHT22;7949;48.726;9.102;2022-08-01T05:50:19;20.30;99.90
15698;DHT22;7949;48.726;9.102;2022-08-01T05:52:47;20.30;99.90
15698;DHT22;7949;48.726;9.102;2022-08-01T05:55:14;20.40;99.90
15698;DHT22;7949;48.726;9.102;2022-08-01T05:57:41;20.50;99.90
15698;DHT22;7949;48.726;9.102;2022-08-01T06:00:09;20.60;99.90
15698;DHT22;7949;48.726;9.102;2022-08-01T06:02:40;20.70;99.90
15698;DHT22;7949;48.726;9.102;2022-08-01T06:05:09;20.70;99.90
15698;DHT22;7949;48.726;9.102;2022-08-01T06:07:36;20.80;99.90
15698;DHT22;7949;48.726;9.102;2022-08-01T06:10:07;20.90;99.90
15698;DHT22;7949;48.726;9.102;2022-08-01T06:12:34;20.90;99.90
15698;DHT22;7949;48.726;9.102;2022-08-01T06:15:01;21.00;99.90
15698;DHT22;7949;48.726;9.102;2022-08-01T06:17:28;21.00;99.90
15698;DHT22;7949;48.726;9.102;2022-08-01T06:19:55;21.10;99.90
15698;DHT22;7949;48.726;9.102;2022-08-01T06:22:22;21.10;99.90
15698;DHT22;7949;48.726;9.102;2022-08-01T06:24:49;21.20;99.90
15698;DHT22;7949;48.726;9.102;2022-08-01T06:27:17;21.10;99.90
15698;DHT22;7949;48.726;9.102;2022-08-01T06:29:44;21.20;99.90
15698;DHT22;7949;48.726;9.102;2022-08-01T06:32:10;21.20;99.90
15698;DHT22;7949;48.726;9.102;2022-08-01T06:34:37;21.20;99.90
15698;DHT22;7949;48.726;9.102;2022-08-01T06:37:04;21.30;99.90
15698;DHT22;7949;48.726;9.102;2022-08-01T06:39:31;21.30;99.90
15698;DHT22;7949;48.726;9.102;2022-08-01T06:41:58;21.30;99.90
15698;DHT22;7949;48.726;9.102;2022-08-01T06:44:26;21.30;99.90
15698;DHT22;7949;48.726;9.102;2022-08-01T06:46:53;21.30;99.90
15698;DHT22;7949;48.726;9.102;2022-08-01T06:49:20;21.40;99.90
15698;DHT22;7949;48.726;9.102;2022-08-01T06:51:47;21.40;99.90
15698;DHT22;7949;48.726;9.102;2022-08-01T06:54:14;21.50;99.90
15698;DHT22;7949;48.726;9.102;2022-08-01T06:56:41;21.60;99.90
15698;DHT22;7949;48.726;9.102;2022-08-01T06:59:08;21.60;99.90
15698;DHT22;7949;48.726;9.102;2022-08-01T07:01:36;21.70;99.90
15698;DHT22;7949;48.726;9.102;2022-08-01T07:04:04;21.70;99.90
15698;DHT22;7949;48.726;9.102;2022-08-01T07:06:31;21.90;99.90
15698;DHT22;7949;48.726;9.102;2022-08-01T07:08:58;22.00;99.90
15698;DHT22;7949;48.726;9.102;2022-08-01T07:11:26;22.00;99.90
15698;DHT22;7949;48.726;9.102;2022-08-01T07:13:53;22.00;99.90
15698;DHT22;7949;48.726;9.102;2022-08-01T07:16:20;22.00;99.90
15698;DHT22;7949;48.726;9.102;2022-08-01T07:18:49;22.00;99.90
15698;DHT22;7949;48.726;9.102;2022-08-01T07:21:16;22.00;99.90
15698;DHT22;7949;48.726;9.102;2022-08-01T07:23:43;21.90;99.90
15698;DHT22;7949;48.726;9.102;2022-08-01T07:26:10;21.90;99.90
15698;DHT22;7949;48.726;9.102;2022-08-01T07:28:38;22.10;99.90
15698;DHT22;7949;48.726;9.102;2022-08-01T07:31:05;22.20;99.90
15698;DHT22;7949;48.726;9.102;2022-08-01T07:33:32;22.30;99.90
15698;DHT22;7949;48.726;9.102;2022-08-01T07:36:00;22.20;99.90
15698;DHT22;7949;48.726;9.102;2022-08-01T07:38:27;22.30;99.90
15698;DHT22;7949;48.726;9.102;2022-08-01T07:40:54;22.50;99.90
15698;DHT22;7949;48.726;9.102;2022-08-01T07:43:21;22.60;99.90
15698;DHT22;7949;48.726;9.102;2022-08-01T07:45:48;22.60;99.90
15698;DHT22;7949;48.726;9.102;2022-08-01T07:48:15;22.60;99.90
15698;DHT22;7949;48.726;9.102;2022-08-01T07:50:41;22.60;99.90
15698;DHT22;7949;48.726;9.102;2022-08-01T07:53:10;22.70;99.90
15698;DHT22;7949;48.726;9.102;2022-08-01T07:55:36;22.60;99.90
15698;DHT22;7949;48.726;9.102;2022-08-01T07:58:03;22.60;99.90
15698;DHT22;7949;48.726;9.102;2022-08-01T08:00:31;22.80;99.90
15698;DHT22;7949;48.726;9.102;2022-08-01T08:02:58;23.00;99.90
15698;DHT22;7949;48.726;9.102;2022-08-01T08:05:25;23.00;99.90
15698;DHT22;7949;48.726;9.102;2022-08-01T08:07:52;22.90;99.90
15698;DHT22;7949;48.726;9.102;2022-08-01T08:10:20;23.00;99.90
15698;DHT22;7949;48.726;9.102;2022-08-01T08:12:47;22.90;99.90
15698;DHT22;7949;48.726;9.102;2022-08-01T08:15:14;23.00;99.90
15698;DHT22;7949;48.726;9.102;2022-08-01T08:17:41;23.10;99.90
15698;DHT22;7949;48.726;9.102;2022-08-01T08:20:08;23.00;99.90
15698;DHT22;7949;48.726;9.102;2022-08-01T08:22:36;23.10;99.90
15698;DHT22;7949;48.726;9.102;2022-08-01T08:25:05;23.40;99.90
15698;DHT22;7949;48.726;9.102;2022-08-01T08:30:09;23.70;99.90
15698;DHT22;7949;48.726;9.102;2022-08-01T08:32:37;23.80;99.90
15698;DHT22;7949;48.726;9.102;2022-08-01T08:37:39;23.80;99.90
15698;DHT22;7949;48.726;9.102;2022-08-01T08:40:07;23.90;99.90
15698;DHT22;7949;48.726;9.102;2022-08-01T08:42:34;24.10;99.90
15698;DHT22;7949;48.726;9.102;2022-08-01T08:45:01;24.10;99.90
15698;DHT22;7949;48.726;9.102;2022-08-01T08:47:32;24.20;99.90
15698;DHT22;7949;48.726;9.102;2022-08-01T08:50:00;24.30;99.90
15698;DHT22;7949;48.726;9.102;2022-08-01T08:52:30;24.20;99.90
15698;DHT22;7949;48.726;9.102;2022-08-01T08:55:01;24.10;99.90
15698;DHT22;7949;48.726;9.102;2022-08-01T08:57:28;24.10;99.90
15698;DHT22;7949;48.726;9.102;2022-08-01T08:59:56;24.00;99.90
15698;DHT22;7949;48.726;9.102;2022-08-01T09:02:23;23.90;99.90
15698;DHT22;7949;48.726;9.102;2022-08-01T09:04:51;23.80;99.90
15698;DHT22;7949;48.726;9.102;2022-08-01T09:07:18;23.90;99.90
15698;DHT22;7949;48.726;9.102;2022-08-01T09:09:45;24.10;99.90
15698;DHT22;7949;48.726;9.102;2022-08-01T09:12:16;24.00;99.90
15698;DHT22;7949;48.726;9.102;2022-08-01T09:14:47;24.00;99.90
15698;DHT22;7949;48.726;9.102;2022-08-01T09:17:15;23.80;99.90
15698;DHT22;7949;48.726;9.102;2022-08-01T09:19:43;23.70;99.90
15698;DHT22;7949;48.726;9.102;2022-08-01T09:22:14;23.90;99.90
15698;DHT22;7949;48.726;9.102;2022-08-01T09:24:57;24.30;99.90
15698;DHT22;7949;48.726;9.102;2022-08-01T09:27:24;24.50;99.90
15698;DHT22;7949;48.726;9.102;2022-08-01T09:29:52;24.40;99.90
15698;DHT22;7949;48.726;9.102;2022-08-01T09:32:20;24.60;99.90
15698;DHT22;7949;48.726;9.102;2022-08-01T09:34:47;24.90;99.90
15698;DHT22;7949;48.726;9.102;2022-08-01T09:37:15;24.90;99.90
15698;DHT22;7949;48.726;9.102;2022-08-01T09:39:43;25.00;99.90
15698;DHT22;7949;48.726;9.102;2022-08-01T09:42:22;25.10;99.90
15698;DHT22;7949;48.726;9.102;2022-08-01T09:44:49;25.30;99.90
15698;DHT22;7949;48.726;9.102;2022-08-01T09:47:16;25.10;99.90
15698;DHT22;7949;48.726;9.102;2022-08-01T09:49:53;25.10;99.90
15698;DHT22;7949;48.726;9.102;2022-08-01T09:52:23;25.00;99.90
15698;DHT22;7949;48.726;9.102;2022-08-01T09:54:53;24.90;99.90
15698;DHT22;7949;48.726;9.102;2022-08-01T09:57:20;25.00;99.90
15698;DHT22;7949;48.726;9.102;2022-08-01T09:59:49;25.10;99.90
15698;DHT22;7949;48.726;9.102;2022-08-01T10:02:28;25.10;99.90
15698;DHT22;7949;48.726;9.102;2022-08-01T10:04:55;25.20;99.90
15698;DHT22;7949;48.726;9.102;2022-08-01T10:07:23;25.30;99.90
15698;DHT22;7949;48.726;9.102;2022-08-01T10:09:50;25.30;99.90
15698;DHT22;7949;48.726;9.102;2022-08-01T10:12:20;25.20;99.90
15698;DHT22;7949;48.726;9.102;2022-08-01T10:14:49;25.10;99.90
15698;DHT22;7949;48.726;9.102;2022-08-01T10:17:19;25.00;99.90
15698;DHT22;7949;48.726;9.102;2022-08-01T10:19:47;25.20;99.90
15698;DHT22;7949;48.726;9.102;2022-08-01T10:22:16;25.30;99.90
15698;DHT22;7949;48.726;9.102;2022-08-01T10:24:47;25.10;99.90
15698;DHT22;7949;48.726;9.102;2022-08-01T10:27:15;24.80;99.90
15698;DHT22;7949;48.726;9.102;2022-08-01T10:29:49;24.70;99.90
15698;DHT22;7949;48.726;9.102;2022-08-01T10:32:17;24.80;99.90
15698;DHT22;7949;48.726;9.102;2022-08-01T10:34:44;25.20;99.90
15698;DHT22;7949;48.726;9.102;2022-08-01T10:37:12;25.50;99.90
15698;DHT22;7949;48.726;9.102;2022-08-01T10:39:40;25.90;99.90
15698;DHT22;7949;48.726;9.102;2022-08-01T10:42:10;26.30;99.90
15698;DHT22;7949;48.726;9.102;2022-08-01T10:44:38;26.80;99.90
15698;DHT22;7949;48.726;9.102;2022-08-01T10:47:09;26.90;99.90
15698;DHT22;7949;48.726;9.102;2022-08-01T10:49:41;27.10;99.90
15698;DHT22;7949;48.726;9.102;2022-08-01T10:52:14;27.10;99.90
15698;DHT22;7949;48.726;9.102;2022-08-01T10:54:41;26.90;99.90
15698;DHT22;7949;48.726;9.102;2022-08-01T10:57:09;26.90;99.90
15698;DHT22;7949;48.726;9.102;2022-08-01T10:59:48;26.60;99.90
15698;DHT22;7949;48.726;9.102;2022-08-01T11:02:26;26.30;99.90
15698;DHT22;7949;48.726;9.102;2022-08-01T11:04:56;26.20;99.90
15698;DHT22;7949;48.726;9.102;2022-08-01T11:07:38;26.30;99.90
15698;DHT22;7949;48.726;9.102;2022-08-01T11:10:14;26.10;99.90
15698;DHT22;7949;48.726;9.102;2022-08-01T11:12:43;25.90;99.90
15698;DHT22;7949;48.726;9.102;2022-08-01T11:15:31;26.00;99.90
15698;DHT22;7949;48.726;9.102;2022-08-01T11:17:59;26.20;99.90
15698;DHT22;7949;48.726;9.102;2022-08-01T11:20:28;26.60;99.90
15698;DHT22;7949;48.726;9.102;2022-08-01T11:23:24;26.50;99.90
15698;DHT22;7949;48.726;9.102;2022-08-01T11:26:10;25.90;99.90
15698;DHT22;7949;48.726;9.102;2022-08-01T11:28:39;25.80;99.90
15698;DHT22;7949;48.726;9.102;2022-08-01T11:31:29;25.70;99.90
15698;DHT22;7949;48.726;9.102;2022-08-01T11:33:56;25.30;99.90
15698;DHT22;7949;48.726;9.102;2022-08-01T11:36:23;25.20;99.90
15698;DHT22;7949;48.726;9.102;2022-08-01T11:39:19;25.10;99.90
15698;DHT22;7949;48.726;9.102;2022-08-01T11:41:47;25.00;99.90
15698;DHT22;7949;48.726;9.102;2022-08-01T11:44:20;25.00;99.90
15698;DHT22;7949;48.726;9.102;2022-08-01T11:46:53;25.00;99.90
15698;DHT22;7949;48.726;9.102;2022-08-01T11:49:33;25.10;99.90
15698;DHT22;7949;48.726;9.102;2022-08-01T11:52:04;25.10;99.90
15698;DHT22;7949;48.726;9.102;2022-08-01T11:54:33;25.30;99.90
15698;DHT22;7949;48.726;9.102;2022-08-01T11:57:02;25.40;99.90
15698;DHT22;7949;48.726;9.102;2022-08-01T11:59:35;25.30;99.90
15698;DHT22;7949;48.726;9.102;2022-08-01T12:02:03;25.20;99.90
15698;DHT22;7949;48.726;9.102;2022-08-01T12:04:45;25.30;99.90
15698;DHT22;7949;48.726;9.102;2022-08-01T12:07:12;25.50;99.90
15698;DHT22;7949;48.726;9.102;2022-08-01T12:09:39;25.70;99.90
15698;DHT22;7949;48.726;9.102;2022-08-01T12:12:06;25.80;99.90
15698;DHT22;7949;48.726;9.102;2022-08-01T12:14:35;25.70;99.90
15698;DHT22;7949;48.726;9.102;2022-08-01T12:17:02;25.80;99.90
15698;DHT22;7949;48.726;9.102;2022-08-01T12:19:29;25.60;99.90
15698;DHT22;7949;48.726;9.102;2022-08-01T12:22:10;25.80;99.90
15698;DHT22;7949;48.726;9.102;2022-08-01T12:24:39;25.50;99.90
15698;DHT22;7949;48.726;9.102;2022-08-01T12:27:08;25.50;99.90
15698;DHT22;7949;48.726;9.102;2022-08-01T12:29:38;25.50;99.90
15698;DHT22;7949;48.726;9.102;2022-08-01T12:32:25;25.50;99.90
15698;DHT22;7949;48.726;9.102;2022-08-01T12:34:53;25.70;99.90
15698;DHT22;7949;48.726;9.102;2022-08-01T12:37:21;26.10;99.90
15698;DHT22;7949;48.726;9.102;2022-08-01T12:39:48;26.30;99.90
15698;DHT22;7949;48.726;9.102;2022-08-01T12:42:15;26.30;99.90
15698;DHT22;7949;48.726;9.102;2022-08-01T12:44:45;26.10;99.90
15698;DHT22;7949;48.726;9.102;2022-08-01T12:47:14;26.20;99.90
15698;DHT22;7949;48.726;9.102;2022-08-01T12:49:43;26.20;99.90
15698;DHT22;7949;48.726;9.102;2022-08-01T12:52:11;26.30;99.90
15698;DHT22;7949;48.726;9.102;2022-08-01T12:55:07;26.70;99.90
15698;DHT22;7949;48.726;9.102;2022-08-01T12:57:35;26.90;99.90
15698;DHT22;7949;48.726;9.102;2022-08-01T13:00:18;27.30;99.90
15698;DHT22;7949;48.726;9.102;2022-08-01T13:02:47;28.20;99.90
15698;DHT22;7949;48.726;9.102;2022-08-01T13:05:15;29.00;99.90
15698;DHT22;7949;48.726;9.102;2022-08-01T13:07:49;29.70;99.90
15698;DHT22;7949;48.726;9.102;2022-08-01T13:10:25;30.30;99.90
15698;DHT22;7949;48.726;9.102;2022-08-01T13:12:54;29.90;99.90
15698;DHT22;7949;48.726;9.102;2022-08-01T13:15:25;29.10;99.90
15698;DHT22;7949;48.726;9.102;2022-08-01T13:17:53;28.40;99.90
15698;DHT22;7949;48.726;9.102;2022-08-01T13:20:38;27.80;99.90
15698;DHT22;7949;48.726;9.102;2022-08-01T13:23:12;27.30;99.90
15698;DHT22;7949;48.726;9.102;2022-08-01T13:25:51;27.50;99.90
15698;DHT22;7949;48.726;9.102;2022-08-01T13:28:20;27.60;99.90
15698;DHT22;7949;48.726;9.102;2022-08-01T13:30:53;27.30;99.90
15698;DHT22;7949;48.726;9.102;2022-08-01T13:33:21;27.40;99.90
15698;DHT22;7949;48.726;9.102;2022-08-01T13:35:49;28.10;99.90
15698;DHT22;7949;48.726;9.102;2022-08-01T13:38:17;28.50;99.90
15698;DHT22;7949;48.726;9.102;2022-08-01T13:40:44;29.20;99.90
15698;DHT22;7949;48.726;9.102;2022-08-01T13:43:11;29.30;99.90
15698;DHT22;7949;48.726;9.102;2022-08-01T13:45:37;28.90;99.90
15698;DHT22;7949;48.726;9.102;2022-08-01T13:48:06;28.20;99.90
15698;DHT22;7949;48.726;9.102;2022-08-01T13:50:33;27.60;99.90
15698;DHT22;7949;48.726;9.102;2022-08-01T13:53:00;27.60;99.90
15698;DHT22;7949;48.726;9.102;2022-08-01T13:55:27;27.90;99.90
15698;DHT22;7949;48.726;9.102;2022-08-01T13:57:54;28.00;99.90
15698;DHT22;7949;48.726;9.102;2022-08-01T14:00:21;28.00;99.90
15698;DHT22;7949;48.726;9.102;2022-08-01T14:02:47;27.90;99.90
15698;DHT22;7949;48.726;9.102;2022-08-01T14:05:16;27.40;99.90
15698;DHT22;7949;48.726;9.102;2022-08-01T14:07:43;27.30;99.90
15698;DHT22;7949;48.726;9.102;2022-08-01T14:10:10;27.70;99.90
15698;DHT22;7949;48.726;9.102;2022-08-01T14:12:37;27.70;99.90
15698;DHT22;7949;48.726;9.102;2022-08-01T14:15:06;27.70;99.90
15698;DHT22;7949;48.726;9.102;2022-08-01T14:17:33;27.60;99.90
15698;DHT22;7949;48.726;9.102;2022-08-01T14:20:00;28.00;99.90
15698;DHT22;7949;48.726;9.102;2022-08-01T14:22:29;28.50;99.90
15698;DHT22;7949;48.726;9.102;2022-08-01T14:24:56;28.10;99.90
15698;DHT22;7949;48.726;9.102;2022-08-01T14:27:24;28.00;99.90
15698;DHT22;7949;48.726;9.102;2022-08-01T14:29:51;28.20;99.90
15698;DHT22;7949;48.726;9.102;2022-08-01T14:32:18;28.90;99.90
15698;DHT22;7949;48.726;9.102;2022-08-01T14:34:45;29.60;99.90
15698;DHT22;7949;48.726;9.102;2022-08-01T14:37:12;29.80;99.90
15698;DHT22;7949;48.726;9.102;2022-08-01T14:39:40;30.40;99.90
15698;DHT22;7949;48.726;9.102;2022-08-01T14:42:07;30.30;99.90
15698;DHT22;7949;48.726;9.102;2022-08-01T14:44:34;30.10;99.90
15698;DHT22;7949;48.726;9.102;2022-08-01T14:47:01;30.20;99.90
15698;DHT22;7949;48.726;9.102;2022-08-01T14:49:28;30.20;99.90
15698;DHT22;7949;48.726;9.102;2022-08-01T14:51:55;29.90;99.90
15698;DHT22;7949;48.726;9.102;2022-08-01T14:54:22;29.20;99.90
15698;DHT22;7949;48.726;9.102;2022-08-01T14:56:50;29.20;99.90
15698;DHT22;7949;48.726;9.102;2022-08-01T14:59:18;29.40;99.90
15698;DHT22;7949;48.726;9.102;2022-08-01T15:01:45;29.20;99.90
15698;DHT22;7949;48.726;9.102;2022-08-01T15:04:12;28.90;99.90
15698;DHT22;7949;48.726;9.102;2022-08-01T15:06:39;28.50;99.90
15698;DHT22;7949;48.726;9.102;2022-08-01T15:09:08;28.50;99.90
15698;DHT22;7949;48.726;9.102;2022-08-01T15:11:35;28.70;99.90
15698;DHT22;7949;48.726;9.102;2022-08-01T15:14:12;28.40;99.90
15698;DHT22;7949;48.726;9.102;2022-08-01T15:16:56;27.70;99.90
15698;DHT22;7949;48.726;9.102;2022-08-01T15:19:23;27.00;99.90
15698;DHT22;7949;48.726;9.102;2022-08-01T15:21:50;26.90;99.90
15698;DHT22;7949;48.726;9.102;2022-08-01T15:24:17;26.90;99.90
15698;DHT22;7949;48.726;9.102;2022-08-01T15:26:44;27.00;99.90
15698;DHT22;7949;48.726;9.102;2022-08-01T15:29:12;26.80;99.90
15698;DHT22;7949;48.726;9.102;2022-08-01T15:31:40;26.60;99.90
15698;DHT22;7949;48.726;9.102;2022-08-01T15:34:07;26.60;99.90
15698;DHT22;7949;48.726;9.102;2022-08-01T15:36:34;26.60;99.90
15698;DHT22;7949;48.726;9.102;2022-08-01T15:39:02;26.60;99.90
15698;DHT22;7949;48.726;9.102;2022-08-01T15:41:29;26.50;99.90
15698;DHT22;7949;48.726;9.102;2022-08-01T15:43:55;26.50;99.90
15698;DHT22;7949;48.726;9.102;2022-08-01T15:46:24;26.50;99.90
15698;DHT22;7949;48.726;9.102;2022-08-01T15:48:51;26.50;99.90
15698;DHT22;7949;48.726;9.102;2022-08-01T15:51:18;26.30;99.90
15698;DHT22;7949;48.726;9.102;2022-08-01T15:53:44;26.40;99.90
15698;DHT22;7949;48.726;9.102;2022-08-01T15:56:12;26.40;99.90
15698;DHT22;7949;48.726;9.102;2022-08-01T15:58:39;26.30;99.90
15698;DHT22;7949;48.726;9.102;2022-08-01T16:01:06;26.20;99.90
15698;DHT22;7949;48.726;9.102;2022-08-01T16:03:34;26.20;99.90